createdAt,value
2019-06-15T00:00:18.316Z,66.00
2019-06-15T00:02:47.823Z,65.66
2019-06-15T00:05:17.298Z,65.89
2019-06-15T00:07:46.779Z,66.02
2019-06-15T00:10:16.497Z,66.14
2019-06-15T00:12:45.979Z,66.37
2019-06-15T00:15:15.873Z,66.59
2019-06-15T00:17:45.435Z,66.56
2019-06-15T00:20:16.028Z,67.06
2019-06-15T00:22:45.573Z,66.73
2019-06-15T00:25:15.467Z,66.80
2019-06-15T00:27:44.940Z,66.77
2019-06-15T00:30:15.236Z,66.73
2019-06-15T00:32:44.710Z,67.42
2019-06-15T00:35:14.331Z,67.48
2019-06-15T00:37:43.813Z,67.07
2019-06-15T00:40:13.760Z,67.57
2019-06-15T00:42:43.288Z,67.24
2019-06-15T00:45:12.995Z,67.12
2019-06-15T00:47:42.520Z,67.12
2019-06-15T00:50:12.832Z,67.28
2019-06-15T00:52:42.350Z,67.56
2019-06-15T00:55:12.061Z,67.60
2019-06-15T00:57:41.545Z,67.24
2019-06-15T01:00:11.544Z,67.68
2019-06-15T01:02:41.185Z,67.59
2019-06-15T01:05:12.422Z,67.72
2019-06-15T01:07:41.900Z,67.76
2019-06-15T01:10:12.666Z,67.59
2019-06-15T01:12:42.212Z,67.59
2019-06-15T01:15:12.092Z,67.87
2019-06-15T01:17:41.701Z,67.96
2019-06-15T01:20:13.297Z,67.63
2019-06-15T01:22:42.842Z,67.78
2019-06-15T01:25:13.080Z,67.30
2019-06-15T01:27:42.570Z,68.18
2019-06-15T01:30:12.880Z,67.54
2019-06-15T01:33:01.722Z,67.74
2019-06-15T01:35:31.201Z,68.00
2019-06-15T01:38:00.657Z,68.18
2019-06-15T01:40:30.212Z,67.94
2019-06-15T01:42:59.668Z,67.87
2019-06-15T01:45:29.230Z,68.25
2019-06-15T01:47:58.758Z,68.07
2019-06-15T01:50:28.282Z,67.78
2019-06-15T01:52:57.763Z,67.85
2019-06-15T01:55:27.210Z,67.87
2019-06-15T01:57:56.684Z,68.47
2019-06-15T02:00:45.774Z,67.87
2019-06-15T02:03:15.264Z,67.55
2019-06-15T02:05:44.792Z,67.82
2019-06-15T02:08:14.275Z,68.04
2019-06-15T02:10:43.803Z,67.85
2019-06-15T02:13:13.264Z,67.58
2019-06-15T02:15:42.772Z,67.73
2019-06-15T02:18:13.449Z,67.80
2019-06-15T02:20:42.889Z,67.90
2019-06-15T02:23:12.341Z,68.54
2019-06-15T02:25:41.865Z,67.90
2019-06-15T02:28:13.790Z,68.33
2019-06-15T02:30:42.551Z,68.26
2019-06-15T02:33:12.083Z,68.62
2019-06-15T02:35:42.799Z,68.94
2019-06-15T02:38:12.303Z,68.19
2019-06-15T02:40:41.956Z,68.58
2019-06-15T02:43:11.404Z,68.70
2019-06-15T02:45:40.947Z,68.79
2019-06-15T02:48:29.793Z,68.61
2019-06-15T02:50:59.312Z,68.65
2019-06-15T02:53:28.781Z,68.37
2019-06-15T02:55:58.260Z,68.57
2019-06-15T02:58:27.721Z,68.36
2019-06-15T03:01:08.611Z,68.21
2019-06-15T03:03:38.154Z,67.83
2019-06-15T03:06:07.859Z,67.67
2019-06-15T03:08:38.046Z,67.79
2019-06-15T03:11:07.577Z,67.95
2019-06-15T03:13:37.481Z,68.29
2019-06-15T03:16:07.500Z,68.32
2019-06-15T03:18:36.957Z,68.37
2019-06-15T03:21:06.503Z,68.71
2019-06-15T03:23:35.966Z,68.20
2019-06-15T03:26:06.334Z,69.08
2019-06-15T03:28:35.901Z,68.97
2019-06-15T03:31:07.251Z,68.88
2019-06-15T03:33:36.789Z,68.75
2019-06-15T03:36:06.315Z,69.28
2019-06-15T03:38:35.793Z,69.08
2019-06-15T03:41:05.424Z,69.53
2019-06-15T03:43:34.924Z,69.51
2019-06-15T03:46:04.372Z,69.36
2019-06-15T03:48:33.855Z,69.13
2019-06-15T03:51:03.314Z,69.17
2019-06-15T03:53:32.775Z,69.71
2019-06-15T03:56:02.328Z,69.62
2019-06-15T03:58:31.822Z,70.07
2019-06-15T04:01:23.765Z,70.14
2019-06-15T04:03:53.219Z,70.34
2019-06-15T04:06:42.071Z,69.93
2019-06-15T04:09:11.534Z,69.76
2019-06-15T04:11:41.018Z,69.97
2019-06-15T04:14:10.508Z,70.09
2019-06-15T04:16:40.068Z,69.59
2019-06-15T04:19:09.560Z,69.77
2019-06-15T04:21:38.995Z,69.51
2019-06-15T04:24:08.560Z,69.67
2019-06-15T04:26:38.011Z,69.81
2019-06-15T04:29:07.559Z,70.24
2019-06-15T04:31:39.874Z,70.52
2019-06-15T04:34:08.228Z,70.23
2019-06-15T04:36:37.707Z,70.00
2019-06-15T04:39:08.446Z,69.69
2019-06-15T04:41:37.908Z,69.76
2019-06-15T04:44:07.383Z,69.44
2019-06-15T04:46:36.864Z,69.68
2019-06-15T04:49:06.412Z,70.06
2019-06-15T04:51:35.880Z,69.89
2019-06-15T04:54:05.496Z,69.49
2019-06-15T04:56:35.272Z,69.58
2019-06-15T04:59:04.799Z,69.24
2019-06-15T05:01:34.294Z,69.47
2019-06-15T05:04:03.777Z,69.50
2019-06-15T05:06:38.907Z,69.31
2019-06-15T05:09:08.456Z,69.58
2019-06-15T05:11:37.953Z,69.22
2019-06-15T05:14:07.447Z,69.30
2019-06-15T05:16:36.937Z,69.49
2019-06-15T05:19:06.426Z,69.46
2019-06-15T05:21:35.879Z,69.57
2019-06-15T05:24:08.569Z,68.87
2019-06-15T05:26:36.683Z,69.04
2019-06-15T05:29:06.244Z,69.40
2019-06-15T05:31:35.719Z,68.91
2019-06-15T05:34:05.345Z,68.79
2019-06-15T05:36:34.815Z,68.59
2019-06-15T05:39:05.810Z,68.59
2019-06-15T05:41:36.102Z,68.60
2019-06-15T05:44:06.113Z,68.39
2019-06-15T05:46:35.607Z,68.52
2019-06-15T05:49:05.207Z,68.69
2019-06-15T05:51:34.689Z,67.79
2019-06-15T05:54:04.316Z,67.40
2019-06-15T05:56:33.796Z,67.21
2019-06-15T05:59:03.284Z,68.09
2019-06-15T06:01:32.743Z,68.19
2019-06-15T06:04:02.233Z,67.04
2019-06-15T06:06:51.090Z,67.66
2019-06-15T06:09:20.548Z,67.51
2019-06-15T06:11:50.018Z,67.32
2019-06-15T06:14:19.570Z,67.32
2019-06-15T06:16:49.036Z,67.25
2019-06-15T06:19:18.516Z,67.22
2019-06-15T06:21:47.998Z,67.47
2019-06-15T06:24:17.564Z,67.12
2019-06-15T06:26:47.051Z,66.53
2019-06-15T06:29:16.511Z,66.38
2019-06-15T06:31:45.989Z,66.64
2019-06-15T06:34:15.469Z,66.79
2019-06-15T06:36:45.004Z,66.97
2019-06-15T06:39:14.495Z,67.54
2019-06-15T06:41:43.963Z,67.00
2019-06-15T06:44:13.573Z,67.12
2019-06-15T06:46:43.083Z,67.29
2019-06-15T06:49:12.583Z,66.75
2019-06-15T06:51:42.137Z,66.70
2019-06-15T06:54:11.669Z,66.61
2019-06-15T06:56:41.163Z,66.79
2019-06-15T06:59:10.626Z,67.09
2019-06-15T07:01:40.174Z,67.24
2019-06-15T07:04:09.651Z,66.38
2019-06-15T07:06:39.689Z,66.36
2019-06-15T07:09:09.241Z,66.71
2019-06-15T07:11:38.779Z,66.29
2019-06-15T07:14:08.333Z,66.70
2019-06-15T07:16:37.818Z,65.40
2019-06-15T07:19:07.362Z,65.54
2019-06-15T07:21:36.923Z,64.90
2019-06-15T07:24:06.426Z,64.42
2019-06-15T07:26:35.896Z,63.92
2019-06-15T07:29:05.541Z,63.60
2019-06-15T07:31:35.036Z,64.66
2019-06-15T07:34:04.687Z,62.89
2019-06-15T07:36:34.152Z,64.39
2019-06-15T07:39:04.289Z,61.89
2019-06-15T07:41:33.791Z,61.41
2019-06-15T07:44:03.379Z,61.53
2019-06-15T07:46:32.913Z,60.11
2019-06-15T07:49:04.971Z,60.74
2019-06-15T07:51:33.699Z,58.91
2019-06-15T07:54:03.187Z,59.22
2019-06-15T07:56:32.689Z,59.22
2019-06-15T07:59:02.172Z,58.38
2019-06-15T08:01:31.657Z,59.03
2019-06-15T08:04:01.131Z,59.75
2019-06-15T08:06:30.703Z,59.11
2019-06-15T08:09:00.277Z,58.64
2019-06-15T08:11:29.762Z,58.43
2019-06-15T08:13:59.327Z,58.51
2019-06-15T08:16:28.815Z,58.39
2019-06-15T08:18:58.316Z,57.85
2019-06-15T08:21:27.763Z,57.98
2019-06-15T08:23:57.284Z,57.70
2019-06-15T08:26:26.793Z,57.64
2019-06-15T08:28:56.264Z,57.22
2019-06-15T08:31:25.837Z,56.38
2019-06-15T08:33:55.340Z,55.81
2019-06-15T08:36:24.836Z,55.56
2019-06-15T08:38:54.326Z,55.58
2019-06-15T08:41:43.132Z,55.65
2019-06-15T08:44:12.696Z,55.86
2019-06-15T08:46:42.162Z,55.22
2019-06-15T08:49:11.653Z,55.53
2019-06-15T08:51:41.400Z,55.86
2019-06-15T08:54:10.875Z,56.11
2019-06-15T08:56:40.430Z,55.11
2019-06-15T08:59:09.903Z,54.51
2019-06-15T09:01:39.530Z,54.60
2019-06-15T09:04:09.043Z,53.49
2019-06-15T09:06:38.481Z,52.56
2019-06-15T09:09:08.045Z,53.71
2019-06-15T09:11:37.601Z,52.11
2019-06-15T09:14:07.173Z,51.18
2019-06-15T09:16:36.649Z,50.66
2019-06-15T09:19:06.181Z,50.42
2019-06-15T09:21:35.686Z,50.74
2019-06-15T09:24:05.292Z,50.89
2019-06-15T09:26:34.771Z,51.10
2019-06-15T09:29:11.224Z,50.96
2019-06-15T09:31:35.564Z,51.26
2019-06-15T09:34:18.083Z,51.80
2019-06-15T09:36:36.310Z,52.11
2019-06-15T09:39:08.109Z,53.62
2019-06-15T09:41:38.629Z,53.19
2019-06-15T09:44:08.134Z,53.02
2019-06-15T09:46:37.591Z,52.97
2019-06-15T09:49:07.099Z,53.53
2019-06-15T09:51:36.642Z,53.42
2019-06-15T09:54:06.212Z,53.61
2019-06-15T09:56:35.688Z,53.25
2019-06-15T09:59:06.157Z,53.93
2019-06-15T10:01:35.733Z,55.26
2019-06-15T10:04:05.327Z,55.53
2019-06-15T10:06:34.942Z,54.24
2019-06-15T10:09:06.376Z,55.16
2019-06-15T10:11:35.959Z,54.67
2019-06-15T10:14:05.571Z,54.61
2019-06-15T10:16:54.457Z,52.61
2019-06-15T10:19:24.048Z,53.03
2019-06-15T10:21:53.490Z,52.35
2019-06-15T10:24:22.960Z,52.28
2019-06-15T10:26:52.469Z,50.18
2019-06-15T10:29:21.943Z,50.77
2019-06-15T10:31:51.427Z,49.77
2019-06-15T10:34:20.907Z,49.20
2019-06-15T10:36:50.481Z,48.79
2019-06-15T10:39:19.981Z,48.93
2019-06-15T10:41:49.550Z,47.86
2019-06-15T10:44:19.028Z,47.39
2019-06-15T10:46:48.558Z,47.78
2019-06-15T10:49:18.070Z,46.91
2019-06-15T10:51:47.544Z,46.64
2019-06-15T10:54:17.035Z,45.51
2019-06-15T10:56:46.496Z,43.34
2019-06-15T10:59:19.291Z,44.03
2019-06-15T11:01:48.858Z,43.75
2019-06-15T11:04:18.438Z,44.13
2019-06-15T11:06:47.897Z,43.70
2019-06-15T11:09:17.367Z,43.64
2019-06-15T11:11:47.110Z,43.19
2019-06-15T11:14:16.590Z,44.11
2019-06-15T11:16:46.325Z,43.04
2019-06-15T11:19:15.893Z,43.03
2019-06-15T11:21:45.439Z,41.82
2019-06-15T11:24:14.939Z,41.97
2019-06-15T11:26:44.573Z,41.95
2019-06-15T11:29:14.134Z,41.11
2019-06-15T11:31:44.235Z,40.58
2019-06-15T11:34:13.734Z,40.79
2019-06-15T11:36:43.273Z,41.19
2019-06-15T11:39:12.786Z,41.07
2019-06-15T11:41:42.825Z,40.68
2019-06-15T11:44:12.291Z,40.93
2019-06-15T11:46:41.927Z,41.87
2019-06-15T11:49:11.406Z,40.90
2019-06-15T11:51:40.917Z,40.88
2019-06-15T11:54:10.387Z,40.94
2019-06-15T11:56:39.858Z,39.74
2019-06-15T11:59:09.359Z,40.57
2019-06-15T12:01:38.904Z,40.90
2019-06-15T12:04:08.565Z,40.17
2019-06-15T12:06:38.092Z,41.00
2019-06-15T12:09:08.800Z,41.16
2019-06-15T12:11:38.321Z,41.47
2019-06-15T12:14:27.176Z,42.12
2019-06-15T12:16:56.617Z,42.77
2019-06-15T12:19:26.123Z,42.69
2019-06-15T12:21:55.597Z,43.35
2019-06-15T12:24:25.069Z,43.71
2019-06-15T12:26:54.556Z,43.98
2019-06-15T12:29:24.041Z,44.26
2019-06-15T12:31:53.587Z,44.67
2019-06-15T12:34:23.054Z,43.89
2019-06-15T12:36:52.701Z,44.18
2019-06-15T12:39:22.256Z,44.26
2019-06-15T12:41:51.753Z,44.98
2019-06-15T12:44:21.316Z,44.76
2019-06-15T12:46:50.779Z,46.54
2019-06-15T12:49:20.264Z,45.22
2019-06-15T12:51:49.715Z,43.47
2019-06-15T12:54:19.213Z,43.61
2019-06-15T12:56:48.662Z,42.15
2019-06-15T12:59:18.136Z,43.85
2019-06-15T13:01:47.614Z,42.36
2019-06-15T13:04:17.093Z,42.43
2019-06-15T13:06:46.591Z,42.30
2019-06-15T13:09:16.067Z,42.67
2019-06-15T13:11:45.579Z,42.85
2019-06-15T13:14:15.054Z,42.93
2019-06-15T13:16:47.321Z,42.84
2019-06-15T13:19:15.762Z,43.28
2019-06-15T13:21:45.427Z,44.45
2019-06-15T13:24:14.849Z,44.13
2019-06-15T13:26:44.341Z,44.94
2019-06-15T13:29:13.818Z,44.16
2019-06-15T13:31:43.277Z,43.42
2019-06-15T13:34:12.781Z,43.90
2019-06-15T13:36:42.239Z,43.04
2019-06-15T13:39:12.006Z,43.70
2019-06-15T13:41:41.468Z,44.84
2019-06-15T13:44:10.977Z,43.37
2019-06-15T13:46:41.484Z,42.81
2019-06-15T13:49:10.963Z,44.50
2019-06-15T13:51:40.451Z,44.98
2019-06-15T13:54:09.917Z,42.89
2019-06-15T13:56:39.394Z,42.36
2019-06-15T13:59:08.908Z,41.89
2019-06-15T14:01:38.386Z,42.26
2019-06-15T14:04:07.905Z,40.85
2019-06-15T14:06:37.386Z,40.53
2019-06-15T14:09:08.304Z,41.13
2019-06-15T14:11:37.786Z,39.71
2019-06-15T14:14:07.283Z,39.87
2019-06-15T14:16:36.768Z,42.13
2019-06-15T14:19:06.334Z,41.38
2019-06-15T14:21:35.882Z,41.18
2019-06-15T14:24:05.433Z,40.64
2019-06-15T14:26:34.955Z,40.15
2019-06-15T14:29:04.472Z,41.51
2019-06-15T14:31:46.699Z,41.74
2019-06-15T14:34:05.332Z,41.17
2019-06-15T14:36:34.869Z,39.96
2019-06-15T14:39:05.813Z,39.27
2019-06-15T14:41:35.439Z,39.36
2019-06-15T14:44:05.338Z,40.33
2019-06-15T14:46:34.931Z,37.50
2019-06-15T14:49:04.498Z,37.49
2019-06-15T14:51:33.939Z,37.00
2019-06-15T14:54:03.471Z,38.07
2019-06-15T14:56:32.964Z,36.56
2019-06-15T14:59:02.447Z,37.16
2019-06-15T15:01:34.846Z,35.55
2019-06-15T15:04:03.294Z,34.89
2019-06-15T15:06:32.760Z,35.76
2019-06-15T15:09:02.257Z,35.83
2019-06-15T15:11:51.181Z,35.10
2019-06-15T15:14:20.655Z,35.27
2019-06-15T15:16:50.127Z,34.10
2019-06-15T15:19:19.742Z,35.19
2019-06-15T15:21:49.185Z,33.67
2019-06-15T15:24:18.669Z,36.42
2019-06-15T15:26:48.134Z,34.78
2019-06-15T15:29:17.716Z,33.45
2019-06-15T15:31:47.271Z,32.61
2019-06-15T15:34:17.374Z,32.56
2019-06-15T15:36:47.186Z,33.86
2019-06-15T15:39:16.887Z,35.64
2019-06-15T15:41:46.985Z,34.39
2019-06-15T15:44:16.916Z,33.81
2019-06-15T15:46:46.461Z,33.81
2019-06-15T15:49:16.413Z,32.88
2019-06-15T15:51:47.294Z,33.13
2019-06-15T15:54:16.913Z,33.11
2019-06-15T15:56:46.826Z,33.53
2019-06-15T15:59:16.540Z,33.46
2019-06-15T16:01:46.338Z,32.81
2019-06-15T16:04:17.074Z,33.57
2019-06-15T16:06:46.927Z,33.01
2019-06-15T16:09:17.018Z,32.26
2019-06-15T16:11:46.841Z,30.65
2019-06-15T16:14:16.611Z,30.70
2019-06-15T16:16:46.823Z,29.99
2019-06-15T16:19:17.239Z,30.37
2019-06-15T16:21:47.264Z,28.95
2019-06-15T16:24:16.918Z,27.00
2019-06-15T16:26:46.854Z,28.87
2019-06-15T16:29:17.029Z,26.10
2019-06-15T16:31:46.499Z,25.66
2019-06-15T16:34:16.275Z,25.68
2019-06-15T16:36:47.031Z,26.54
2019-06-15T16:39:16.905Z,25.22
2019-06-15T16:41:47.133Z,25.27
2019-06-15T16:44:17.437Z,23.12
2019-06-15T16:46:47.049Z,23.11
2019-06-15T16:49:20.494Z,23.09
2019-06-15T16:51:47.776Z,22.15
2019-06-15T16:54:17.229Z,22.71
2019-06-15T16:56:46.825Z,21.83
2019-06-15T16:59:16.340Z,21.25
2019-06-15T17:01:45.836Z,21.07
2019-06-15T17:04:16.578Z,21.28
2019-06-15T17:06:46.191Z,21.20
2019-06-15T17:09:16.835Z,22.12
2019-06-15T17:11:47.139Z,22.67
2019-06-15T17:14:17.261Z,23.51
2019-06-15T17:16:46.832Z,23.48
2019-06-15T17:19:16.600Z,22.85
2019-06-15T17:21:46.695Z,22.00
2019-06-15T17:24:17.180Z,22.70
2019-06-15T17:26:46.974Z,24.88
2019-06-15T17:29:16.861Z,24.78
2019-06-15T17:31:46.845Z,24.78
2019-06-15T17:34:16.753Z,23.28
2019-06-15T17:36:47.221Z,23.54
2019-06-15T17:39:17.250Z,25.03
2019-06-15T17:41:47.384Z,23.83
2019-06-15T17:44:17.062Z,23.99
2019-06-15T17:46:46.697Z,25.62
2019-06-15T17:49:17.899Z,25.10
2019-06-15T17:51:47.465Z,25.53
2019-06-15T17:54:17.177Z,24.96
2019-06-15T17:56:46.793Z,26.03
2019-06-15T17:59:16.475Z,25.89
2019-06-15T18:01:46.982Z,25.18
2019-06-15T18:04:16.823Z,25.23
2019-06-15T18:06:46.843Z,27.44
2019-06-15T18:09:17.144Z,25.90
2019-06-15T18:11:46.884Z,25.63
2019-06-15T18:14:17.704Z,24.46
2019-06-15T18:16:47.386Z,25.27
2019-06-15T18:19:17.250Z,23.64
2019-06-15T18:21:46.993Z,23.10
2019-06-15T18:24:37.261Z,23.90
2019-06-15T18:27:09.468Z,24.17
2019-06-15T18:29:38.191Z,24.39
2019-06-15T18:32:07.850Z,25.46
2019-06-15T18:34:37.348Z,25.34
2019-06-15T18:37:07.703Z,25.32
2019-06-15T18:39:37.337Z,25.84
2019-06-15T18:42:07.714Z,27.34
2019-06-15T18:44:37.395Z,27.62
2019-06-15T18:47:07.224Z,27.29
2019-06-15T18:49:36.742Z,27.45
2019-06-15T18:52:06.299Z,27.97
2019-06-15T18:54:36.400Z,27.93
2019-06-15T18:57:07.456Z,29.68
2019-06-15T18:59:37.036Z,29.24
2019-06-15T19:02:06.793Z,29.92
2019-06-15T19:04:36.391Z,31.25
2019-06-15T19:07:06.665Z,34.54
2019-06-15T19:09:36.306Z,34.93
2019-06-15T19:12:07.043Z,37.30
2019-06-15T19:14:36.710Z,36.58
2019-06-15T19:17:06.247Z,37.16
2019-06-15T19:19:37.729Z,39.21
2019-06-15T19:22:07.119Z,39.31
2019-06-15T19:24:36.864Z,39.35
2019-06-15T19:27:08.312Z,40.91
2019-06-15T19:29:37.985Z,41.99
2019-06-15T19:32:08.157Z,42.05
2019-06-15T19:34:47.242Z,42.51
2019-06-15T19:37:09.084Z,41.38
2019-06-15T19:39:38.580Z,43.63
2019-06-15T19:42:08.183Z,44.70
2019-06-15T19:44:37.771Z,44.61
2019-06-15T19:47:07.342Z,44.71
2019-06-15T19:49:36.829Z,45.65
2019-06-15T19:52:06.702Z,45.94
2019-06-15T19:54:36.633Z,45.83
2019-06-15T19:57:06.874Z,46.22
2019-06-15T19:59:36.689Z,46.84
2019-06-15T20:02:10.059Z,48.12
2019-06-15T20:04:38.351Z,47.88
2019-06-15T20:07:07.904Z,48.58
2019-06-15T20:09:37.378Z,48.60
2019-06-15T20:12:17.962Z,49.73
2019-06-15T20:14:38.132Z,50.33
2019-06-15T20:17:07.619Z,50.86
2019-06-15T20:19:37.695Z,50.87
2019-06-15T20:22:07.414Z,52.14
2019-06-15T20:24:36.934Z,52.33
2019-06-15T20:27:09.715Z,52.13
2019-06-15T20:29:37.664Z,51.44
2019-06-15T20:32:07.138Z,52.97
2019-06-15T20:34:37.216Z,52.69
2019-06-15T20:37:06.971Z,53.03
2019-06-15T20:39:36.478Z,53.46
2019-06-15T20:42:07.885Z,54.06
2019-06-15T20:44:37.223Z,53.80
2019-06-15T20:47:06.810Z,54.19
2019-06-15T20:49:36.938Z,54.46
2019-06-15T20:52:07.052Z,54.99
2019-06-15T20:54:36.833Z,54.31
2019-06-15T20:57:06.603Z,55.11
2019-06-15T20:59:36.935Z,55.11
2019-06-15T21:02:07.119Z,55.18
2019-06-15T21:04:36.670Z,55.77
2019-06-15T21:07:06.754Z,55.12
2019-06-15T21:09:36.585Z,55.85
2019-06-15T21:12:07.889Z,56.32
2019-06-15T21:14:37.373Z,55.76
2019-06-15T21:17:06.981Z,56.06
2019-06-15T21:19:36.479Z,56.54
2019-06-15T21:22:06.553Z,56.33
2019-06-15T21:24:37.254Z,57.05
2019-06-15T21:27:06.985Z,56.65
2019-06-15T21:29:37.121Z,56.82
2019-06-15T21:32:06.716Z,57.19
2019-06-15T21:34:36.380Z,57.09
2019-06-15T21:37:06.704Z,57.49
2019-06-15T21:39:36.599Z,58.36
2019-06-15T21:42:06.541Z,57.28
2019-06-15T21:44:36.988Z,57.21
2019-06-15T21:47:07.026Z,57.66
2019-06-15T21:49:36.618Z,58.15
2019-06-15T21:52:07.119Z,58.63
2019-06-15T21:54:36.885Z,58.42
2019-06-15T21:57:07.101Z,58.23
2019-06-15T21:59:37.129Z,57.87
2019-06-15T22:02:07.250Z,58.39
2019-06-15T22:04:37.409Z,59.28
2019-06-15T22:07:06.962Z,58.86
2019-06-15T22:09:36.585Z,58.99
2019-06-15T22:12:06.897Z,58.77
2019-06-15T22:14:36.718Z,57.96
2019-06-15T22:17:06.720Z,59.12
2019-06-15T22:19:36.881Z,59.87
2019-06-15T22:22:27.294Z,59.79
2019-06-15T22:24:56.919Z,60.06
2019-06-15T22:27:26.410Z,59.11
2019-06-15T22:29:56.524Z,59.33
2019-06-15T22:32:27.031Z,60.09
2019-06-15T22:34:56.670Z,60.46
2019-06-15T22:37:26.381Z,60.72
2019-06-15T22:39:56.250Z,61.10
2019-06-15T22:42:25.939Z,60.36
2019-06-15T22:44:56.833Z,60.06
2019-06-15T22:47:27.044Z,60.09
2019-06-15T22:49:56.660Z,59.73
2019-06-15T22:52:26.501Z,59.61
2019-06-15T22:54:56.842Z,60.45
2019-06-15T22:57:26.437Z,60.76
2019-06-15T22:59:56.766Z,60.22
2019-06-15T23:02:26.445Z,59.67
2019-06-15T23:04:56.574Z,61.22
2019-06-15T23:07:26.154Z,61.81
2019-06-15T23:09:56.353Z,61.36
2019-06-15T23:12:25.899Z,61.70
2019-06-15T23:15:17.403Z,61.18
2019-06-15T23:17:46.941Z,61.53
2019-06-15T23:20:17.326Z,61.76
2019-06-15T23:22:46.976Z,61.73
2019-06-15T23:25:17.018Z,62.15
2019-06-15T23:27:47.076Z,61.16
2019-06-15T23:30:16.830Z,61.13
2019-06-15T23:32:47.089Z,60.03
2019-06-15T23:35:17.349Z,60.17
2019-06-15T23:37:46.837Z,60.83
2019-06-15T23:40:20.854Z,61.40
2019-06-15T23:42:51.635Z,61.50
2019-06-15T23:45:22.016Z,61.80
2019-06-15T23:47:51.801Z,61.24
2019-06-15T23:50:22.096Z,61.17
2019-06-15T23:52:51.764Z,61.59
2019-06-15T23:55:21.687Z,62.04
2019-06-15T23:57:51.176Z,61.02
